sensor_id;sensor_type;location;lat;lon;timestamp;P1;durP1;ratioP1;P2;durP2;ratioP2
71108;SDS011;59614;51.012;-1.648;2023-08-06T00:00:50;4.13;;;2.28;;
71108;SDS011;59614;51.012;-1.648;2023-08-06T00:03:16;5.10;;;2.35;;
71108;SDS011;59614;51.012;-1.648;2023-08-06T00:05:41;4.13;;;2.20;;
71108;SDS011;59614;51.012;-1.648;2023-08-06T00:08:10;3.35;;;2.25;;
71108;SDS011;59614;51.012;-1.648;2023-08-06T00:10:36;5.20;;;2.40;;
71108;SDS011;59614;51.012;-1.648;2023-08-06T00:13:01;3.58;;;2.20;;
71108;SDS011;59614;51.012;-1.648;2023-08-06T00:15:26;5.78;;;2.33;;
71108;SDS011;59614;51.012;-1.648;2023-08-06T00:17:52;8.57;;;2.30;;
71108;SDS011;59614;51.012;-1.648;2023-08-06T00:20:17;3.28;;;2.28;;
71108;SDS011;59614;51.012;-1.648;2023-08-06T00:22:43;5.68;;;2.33;;
71108;SDS011;59614;51.012;-1.648;2023-08-06T00:25:08;8.07;;;2.83;;
71108;SDS011;59614;51.012;-1.648;2023-08-06T00:27:34;6.00;;;2.28;;
71108;SDS011;59614;51.012;-1.648;2023-08-06T00:29:59;3.22;;;2.00;;
71108;SDS011;59614;51.012;-1.648;2023-08-06T00:32:24;4.88;;;2.25;;
71108;SDS011;59614;51.012;-1.648;2023-08-06T00:34:50;5.18;;;2.25;;
71108;SDS011;59614;51.012;-1.648;2023-08-06T00:37:16;5.05;;;2.30;;
71108;SDS011;59614;51.012;-1.648;2023-08-06T00:39:41;4.43;;;2.10;;
71108;SDS011;59614;51.012;-1.648;2023-08-06T00:42:08;4.00;;;2.10;;
71108;SDS011;59614;51.012;-1.648;2023-08-06T00:44:33;5.13;;;2.25;;
71108;SDS011;59614;51.012;-1.648;2023-08-06T00:46:59;6.00;;;2.30;;
71108;SDS011;59614;51.012;-1.648;2023-08-06T00:49:24;4.57;;;2.28;;
71108;SDS011;59614;51.012;-1.648;2023-08-06T00:51:50;4.03;;;2.17;;
71108;SDS011;59614;51.012;-1.648;2023-08-06T00:54:16;4.50;;;2.10;;
71108;SDS011;59614;51.012;-1.648;2023-08-06T00:56:42;4.00;;;2.33;;
71108;SDS011;59614;51.012;-1.648;2023-08-06T00:59:07;4.57;;;2.03;;
71108;SDS011;59614;51.012;-1.648;2023-08-06T01:04:01;4.82;;;2.17;;
71108;SDS011;59614;51.012;-1.648;2023-08-06T01:06:39;6.05;;;2.10;;
71108;SDS011;59614;51.012;-1.648;2023-08-06T01:09:13;7.60;;;2.40;;
71108;SDS011;59614;51.012;-1.648;2023-08-06T01:14:43;3.65;;;1.98;;
71108;SDS011;59614;51.012;-1.648;2023-08-06T01:17:17;3.95;;;2.08;;
71108;SDS011;59614;51.012;-1.648;2023-08-06T01:19:43;4.60;;;2.05;;
71108;SDS011;59614;51.012;-1.648;2023-08-06T01:22:08;4.55;;;2.38;;
71108;SDS011;59614;51.012;-1.648;2023-08-06T01:24:34;6.97;;;2.83;;
71108;SDS011;59614;51.012;-1.648;2023-08-06T01:27:14;6.03;;;2.30;;
71108;SDS011;59614;51.012;-1.648;2023-08-06T01:29:52;4.05;;;2.38;;
71108;SDS011;59614;51.012;-1.648;2023-08-06T01:32:27;6.22;;;2.35;;
71108;SDS011;59614;51.012;-1.648;2023-08-06T01:34:55;6.78;;;2.30;;
71108;SDS011;59614;51.012;-1.648;2023-08-06T01:37:21;4.55;;;2.42;;
71108;SDS011;59614;51.012;-1.648;2023-08-06T01:39:47;6.75;;;2.90;;
71108;SDS011;59614;51.012;-1.648;2023-08-06T01:42:13;4.60;;;2.45;;
71108;SDS011;59614;51.012;-1.648;2023-08-06T01:44:38;6.07;;;2.40;;
71108;SDS011;59614;51.012;-1.648;2023-08-06T01:47:04;8.38;;;2.88;;
71108;SDS011;59614;51.012;-1.648;2023-08-06T01:49:29;4.88;;;2.67;;
71108;SDS011;59614;51.012;-1.648;2023-08-06T01:51:55;3.95;;;2.33;;
71108;SDS011;59614;51.012;-1.648;2023-08-06T01:54:20;6.95;;;2.65;;
71108;SDS011;59614;51.012;-1.648;2023-08-06T01:56:46;4.38;;;2.50;;
71108;SDS011;59614;51.012;-1.648;2023-08-06T01:59:11;6.13;;;2.55;;
71108;SDS011;59614;51.012;-1.648;2023-08-06T02:01:36;3.90;;;2.42;;
71108;SDS011;59614;51.012;-1.648;2023-08-06T02:04:02;5.97;;;2.40;;
71108;SDS011;59614;51.012;-1.648;2023-08-06T02:06:27;5.18;;;2.58;;
71108;SDS011;59614;51.012;-1.648;2023-08-06T02:08:53;4.53;;;2.60;;
71108;SDS011;59614;51.012;-1.648;2023-08-06T02:11:18;7.75;;;2.90;;
71108;SDS011;59614;51.012;-1.648;2023-08-06T02:13:43;4.55;;;2.53;;
71108;SDS011;59614;51.012;-1.648;2023-08-06T02:16:10;7.65;;;2.67;;
71108;SDS011;59614;51.012;-1.648;2023-08-06T02:18:36;6.22;;;2.85;;
71108;SDS011;59614;51.012;-1.648;2023-08-06T02:21:01;9.18;;;2.83;;
71108;SDS011;59614;51.012;-1.648;2023-08-06T02:23:26;6.60;;;2.58;;
71108;SDS011;59614;51.012;-1.648;2023-08-06T02:26:02;4.63;;;2.60;;
71108;SDS011;59614;51.012;-1.648;2023-08-06T02:28:29;5.47;;;2.67;;
71108;SDS011;59614;51.012;-1.648;2023-08-06T02:30:55;4.20;;;2.70;;
71108;SDS011;59614;51.012;-1.648;2023-08-06T02:33:21;7.18;;;2.67;;
71108;SDS011;59614;51.012;-1.648;2023-08-06T02:35:46;5.47;;;2.80;;
71108;SDS011;59614;51.012;-1.648;2023-08-06T02:38:12;5.30;;;2.95;;
71108;SDS011;59614;51.012;-1.648;2023-08-06T02:40:42;5.88;;;3.00;;
71108;SDS011;59614;51.012;-1.648;2023-08-06T02:43:09;5.43;;;2.60;;
71108;SDS011;59614;51.012;-1.648;2023-08-06T02:45:35;6.28;;;2.60;;
71108;SDS011;59614;51.012;-1.648;2023-08-06T02:48:00;6.35;;;2.55;;
71108;SDS011;59614;51.012;-1.648;2023-08-06T02:50:27;5.35;;;2.50;;
71108;SDS011;59614;51.012;-1.648;2023-08-06T02:52:52;4.10;;;2.50;;
71108;SDS011;59614;51.012;-1.648;2023-08-06T02:55:18;4.60;;;2.65;;
71108;SDS011;59614;51.012;-1.648;2023-08-06T02:57:43;5.15;;;2.50;;
71108;SDS011;59614;51.012;-1.648;2023-08-06T03:00:08;6.75;;;2.85;;
71108;SDS011;59614;51.012;-1.648;2023-08-06T03:02:36;5.00;;;2.78;;
71108;SDS011;59614;51.012;-1.648;2023-08-06T03:05:02;5.47;;;2.70;;
71108;SDS011;59614;51.012;-1.648;2023-08-06T03:07:28;4.90;;;2.75;;
71108;SDS011;59614;51.012;-1.648;2023-08-06T03:09:54;7.22;;;2.83;;
71108;SDS011;59614;51.012;-1.648;2023-08-06T03:12:19;8.43;;;2.50;;
71108;SDS011;59614;51.012;-1.648;2023-08-06T03:14:45;9.52;;;2.55;;
71108;SDS011;59614;51.012;-1.648;2023-08-06T03:17:10;6.28;;;3.00;;
71108;SDS011;59614;51.012;-1.648;2023-08-06T03:19:36;6.20;;;2.95;;
71108;SDS011;59614;51.012;-1.648;2023-08-06T03:22:01;5.07;;;2.50;;
71108;SDS011;59614;51.012;-1.648;2023-08-06T03:24:26;4.47;;;2.60;;
71108;SDS011;59614;51.012;-1.648;2023-08-06T03:26:52;6.82;;;2.80;;
71108;SDS011;59614;51.012;-1.648;2023-08-06T03:29:17;6.95;;;2.50;;
71108;SDS011;59614;51.012;-1.648;2023-08-06T03:31:43;5.25;;;3.35;;
71108;SDS011;59614;51.012;-1.648;2023-08-06T03:34:08;6.93;;;2.90;;
71108;SDS011;59614;51.012;-1.648;2023-08-06T03:36:33;7.05;;;2.65;;
71108;SDS011;59614;51.012;-1.648;2023-08-06T03:38:59;7.40;;;3.05;;
71108;SDS011;59614;51.012;-1.648;2023-08-06T03:41:24;5.60;;;2.30;;
71108;SDS011;59614;51.012;-1.648;2023-08-06T03:43:50;5.68;;;2.80;;
71108;SDS011;59614;51.012;-1.648;2023-08-06T03:46:15;6.28;;;2.65;;
71108;SDS011;59614;51.012;-1.648;2023-08-06T03:48:40;5.65;;;2.47;;
71108;SDS011;59614;51.012;-1.648;2023-08-06T03:51:06;5.63;;;2.78;;
71108;SDS011;59614;51.012;-1.648;2023-08-06T03:53:31;6.72;;;2.85;;
71108;SDS011;59614;51.012;-1.648;2023-08-06T03:55:57;6.18;;;2.75;;
71108;SDS011;59614;51.012;-1.648;2023-08-06T03:58:25;5.88;;;2.58;;
71108;SDS011;59614;51.012;-1.648;2023-08-06T04:00:57;5.45;;;2.80;;
71108;SDS011;59614;51.012;-1.648;2023-08-06T04:03:26;5.20;;;3.00;;
71108;SDS011;59614;51.012;-1.648;2023-08-06T04:05:52;6.50;;;2.80;;
71108;SDS011;59614;51.012;-1.648;2023-08-06T04:08:17;6.93;;;2.42;;
71108;SDS011;59614;51.012;-1.648;2023-08-06T04:10:43;6.28;;;2.70;;
71108;SDS011;59614;51.012;-1.648;2023-08-06T04:13:08;8.50;;;2.75;;
71108;SDS011;59614;51.012;-1.648;2023-08-06T04:15:34;9.20;;;2.80;;
71108;SDS011;59614;51.012;-1.648;2023-08-06T04:17:59;4.28;;;2.53;;
71108;SDS011;59614;51.012;-1.648;2023-08-06T04:20:25;4.97;;;2.85;;
71108;SDS011;59614;51.012;-1.648;2023-08-06T04:22:50;8.55;;;2.70;;
71108;SDS011;59614;51.012;-1.648;2023-08-06T04:25:16;8.27;;;2.80;;
71108;SDS011;59614;51.012;-1.648;2023-08-06T04:27:46;6.38;;;2.60;;
71108;SDS011;59614;51.012;-1.648;2023-08-06T04:30:12;5.03;;;2.65;;
71108;SDS011;59614;51.012;-1.648;2023-08-06T04:32:38;9.85;;;2.70;;
71108;SDS011;59614;51.012;-1.648;2023-08-06T04:35:04;9.02;;;2.70;;
71108;SDS011;59614;51.012;-1.648;2023-08-06T04:37:30;5.95;;;2.72;;
71108;SDS011;59614;51.012;-1.648;2023-08-06T04:39:56;8.35;;;2.67;;
71108;SDS011;59614;51.012;-1.648;2023-08-06T04:42:21;7.93;;;2.60;;
71108;SDS011;59614;51.012;-1.648;2023-08-06T04:44:46;8.25;;;2.75;;
71108;SDS011;59614;51.012;-1.648;2023-08-06T04:47:12;8.48;;;2.75;;
71108;SDS011;59614;51.012;-1.648;2023-08-06T04:49:37;5.53;;;2.60;;
71108;SDS011;59614;51.012;-1.648;2023-08-06T04:52:03;4.95;;;2.53;;
71108;SDS011;59614;51.012;-1.648;2023-08-06T04:54:28;4.78;;;2.70;;
71108;SDS011;59614;51.012;-1.648;2023-08-06T04:56:54;7.07;;;2.70;;
71108;SDS011;59614;51.012;-1.648;2023-08-06T04:59:19;7.30;;;3.00;;
71108;SDS011;59614;51.012;-1.648;2023-08-06T05:01:45;5.50;;;2.67;;
71108;SDS011;59614;51.012;-1.648;2023-08-06T05:04:10;5.20;;;2.75;;
71108;SDS011;59614;51.012;-1.648;2023-08-06T05:06:36;4.97;;;2.40;;
71108;SDS011;59614;51.012;-1.648;2023-08-06T05:09:03;5.35;;;2.70;;
71108;SDS011;59614;51.012;-1.648;2023-08-06T05:11:29;5.45;;;2.42;;
71108;SDS011;59614;51.012;-1.648;2023-08-06T05:13:55;4.32;;;2.38;;
71108;SDS011;59614;51.012;-1.648;2023-08-06T05:16:20;6.68;;;2.72;;
71108;SDS011;59614;51.012;-1.648;2023-08-06T05:18:46;5.53;;;2.55;;
71108;SDS011;59614;51.012;-1.648;2023-08-06T05:21:11;6.43;;;3.22;;
71108;SDS011;59614;51.012;-1.648;2023-08-06T05:23:36;13.85;;;2.83;;
71108;SDS011;59614;51.012;-1.648;2023-08-06T05:26:02;6.40;;;2.72;;
71108;SDS011;59614;51.012;-1.648;2023-08-06T05:28:27;8.32;;;2.70;;
71108;SDS011;59614;51.012;-1.648;2023-08-06T05:30:53;6.05;;;2.70;;
71108;SDS011;59614;51.012;-1.648;2023-08-06T05:33:18;6.55;;;2.70;;
71108;SDS011;59614;51.012;-1.648;2023-08-06T05:35:44;5.10;;;2.78;;
71108;SDS011;59614;51.012;-1.648;2023-08-06T05:38:09;4.35;;;2.55;;
71108;SDS011;59614;51.012;-1.648;2023-08-06T05:40:34;6.00;;;2.30;;
71108;SDS011;59614;51.012;-1.648;2023-08-06T05:43:00;8.10;;;2.80;;
71108;SDS011;59614;51.012;-1.648;2023-08-06T05:45:25;6.53;;;2.55;;
71108;SDS011;59614;51.012;-1.648;2023-08-06T05:47:51;6.60;;;2.70;;
71108;SDS011;59614;51.012;-1.648;2023-08-06T05:50:18;4.30;;;2.50;;
71108;SDS011;59614;51.012;-1.648;2023-08-06T05:52:44;5.72;;;2.40;;
71108;SDS011;59614;51.012;-1.648;2023-08-06T05:55:09;4.65;;;2.50;;
71108;SDS011;59614;51.012;-1.648;2023-08-06T05:57:35;7.82;;;2.90;;
71108;SDS011;59614;51.012;-1.648;2023-08-06T06:00:01;6.85;;;2.50;;
71108;SDS011;59614;51.012;-1.648;2023-08-06T06:02:27;6.20;;;2.63;;
71108;SDS011;59614;51.012;-1.648;2023-08-06T06:04:53;6.30;;;2.50;;
71108;SDS011;59614;51.012;-1.648;2023-08-06T06:07:18;4.97;;;2.47;;
71108;SDS011;59614;51.012;-1.648;2023-08-06T06:09:44;7.47;;;2.63;;
71108;SDS011;59614;51.012;-1.648;2023-08-06T06:12:09;7.10;;;2.55;;
71108;SDS011;59614;51.012;-1.648;2023-08-06T06:14:35;7.72;;;2.35;;
71108;SDS011;59614;51.012;-1.648;2023-08-06T06:17:00;6.38;;;2.70;;
71108;SDS011;59614;51.012;-1.648;2023-08-06T06:19:26;5.45;;;2.38;;
71108;SDS011;59614;51.012;-1.648;2023-08-06T06:21:51;5.15;;;2.33;;
71108;SDS011;59614;51.012;-1.648;2023-08-06T06:24:18;10.50;;;2.58;;
71108;SDS011;59614;51.012;-1.648;2023-08-06T06:26:43;4.10;;;2.47;;
71108;SDS011;59614;51.012;-1.648;2023-08-06T06:29:08;6.82;;;2.55;;
71108;SDS011;59614;51.012;-1.648;2023-08-06T06:31:34;5.85;;;2.53;;
71108;SDS011;59614;51.012;-1.648;2023-08-06T06:33:59;6.50;;;2.45;;
71108;SDS011;59614;51.012;-1.648;2023-08-06T06:36:25;6.70;;;2.50;;
71108;SDS011;59614;51.012;-1.648;2023-08-06T06:38:50;5.32;;;2.38;;
71108;SDS011;59614;51.012;-1.648;2023-08-06T06:41:15;8.13;;;2.00;;
71108;SDS011;59614;51.012;-1.648;2023-08-06T06:43:41;5.22;;;2.03;;
71108;SDS011;59614;51.012;-1.648;2023-08-06T06:46:07;5.20;;;2.22;;
71108;SDS011;59614;51.012;-1.648;2023-08-06T06:48:32;6.30;;;2.28;;
71108;SDS011;59614;51.012;-1.648;2023-08-06T06:50:58;3.85;;;2.30;;
71108;SDS011;59614;51.012;-1.648;2023-08-06T06:53:24;4.10;;;2.05;;
71108;SDS011;59614;51.012;-1.648;2023-08-06T06:55:56;7.07;;;2.08;;
71108;SDS011;59614;51.012;-1.648;2023-08-06T06:58:26;5.53;;;2.13;;
71108;SDS011;59614;51.012;-1.648;2023-08-06T07:00:52;7.38;;;2.50;;
71108;SDS011;59614;51.012;-1.648;2023-08-06T07:03:17;5.10;;;1.90;;
71108;SDS011;59614;51.012;-1.648;2023-08-06T07:05:44;3.25;;;1.90;;
71108;SDS011;59614;51.012;-1.648;2023-08-06T07:08:10;6.00;;;2.50;;
71108;SDS011;59614;51.012;-1.648;2023-08-06T07:10:35;4.70;;;1.90;;
71108;SDS011;59614;51.012;-1.648;2023-08-06T07:13:01;3.25;;;1.88;;
71108;SDS011;59614;51.012;-1.648;2023-08-06T07:15:26;5.63;;;2.20;;
71108;SDS011;59614;51.012;-1.648;2023-08-06T07:17:51;5.32;;;2.00;;
71108;SDS011;59614;51.012;-1.648;2023-08-06T07:20:17;4.72;;;1.70;;
71108;SDS011;59614;51.012;-1.648;2023-08-06T07:22:43;4.72;;;2.00;;
71108;SDS011;59614;51.012;-1.648;2023-08-06T07:25:09;7.07;;;2.05;;
71108;SDS011;59614;51.012;-1.648;2023-08-06T07:27:34;3.85;;;1.70;;
71108;SDS011;59614;51.012;-1.648;2023-08-06T07:30:00;5.07;;;2.13;;
71108;SDS011;59614;51.012;-1.648;2023-08-06T07:32:25;3.88;;;2.00;;
71108;SDS011;59614;51.012;-1.648;2023-08-06T07:34:53;6.05;;;1.90;;
71108;SDS011;59614;51.012;-1.648;2023-08-06T07:37:22;5.47;;;2.05;;
71108;SDS011;59614;51.012;-1.648;2023-08-06T07:39:48;4.97;;;1.90;;
71108;SDS011;59614;51.012;-1.648;2023-08-06T07:42:13;4.43;;;1.85;;
71108;SDS011;59614;51.012;-1.648;2023-08-06T07:44:39;5.35;;;1.80;;
71108;SDS011;59614;51.012;-1.648;2023-08-06T07:47:04;7.75;;;2.10;;
71108;SDS011;59614;51.012;-1.648;2023-08-06T07:49:30;4.53;;;1.88;;
71108;SDS011;59614;51.012;-1.648;2023-08-06T07:51:55;4.63;;;2.20;;
71108;SDS011;59614;51.012;-1.648;2023-08-06T07:54:21;3.50;;;1.85;;
71108;SDS011;59614;51.012;-1.648;2023-08-06T07:56:47;4.50;;;2.10;;
71108;SDS011;59614;51.012;-1.648;2023-08-06T07:59:12;5.60;;;2.00;;
71108;SDS011;59614;51.012;-1.648;2023-08-06T08:01:38;7.20;;;2.03;;
71108;SDS011;59614;51.012;-1.648;2023-08-06T08:04:04;3.53;;;1.85;;
71108;SDS011;59614;51.012;-1.648;2023-08-06T08:06:30;5.53;;;2.38;;
71108;SDS011;59614;51.012;-1.648;2023-08-06T08:08:55;10.73;;;2.03;;
71108;SDS011;59614;51.012;-1.648;2023-08-06T08:11:20;3.58;;;1.80;;
71108;SDS011;59614;51.012;-1.648;2023-08-06T08:13:46;4.40;;;2.00;;
71108;SDS011;59614;51.012;-1.648;2023-08-06T08:16:11;4.55;;;1.73;;
71108;SDS011;59614;51.012;-1.648;2023-08-06T08:18:37;5.25;;;1.80;;
71108;SDS011;59614;51.012;-1.648;2023-08-06T08:21:02;4.68;;;1.80;;
71108;SDS011;59614;51.012;-1.648;2023-08-06T08:23:28;12.48;;;2.53;;
71108;SDS011;59614;51.012;-1.648;2023-08-06T08:25:53;2.90;;;1.83;;
71108;SDS011;59614;51.012;-1.648;2023-08-06T08:28:19;4.53;;;1.88;;
71108;SDS011;59614;51.012;-1.648;2023-08-06T08:30:45;4.10;;;1.85;;
71108;SDS011;59614;51.012;-1.648;2023-08-06T08:33:10;4.65;;;1.70;;
71108;SDS011;59614;51.012;-1.648;2023-08-06T08:35:36;5.68;;;1.90;;
71108;SDS011;59614;51.012;-1.648;2023-08-06T08:38:02;3.40;;;1.55;;
71108;SDS011;59614;51.012;-1.648;2023-08-06T08:40:29;6.15;;;1.88;;
71108;SDS011;59614;51.012;-1.648;2023-08-06T08:42:57;4.13;;;1.70;;
71108;SDS011;59614;51.012;-1.648;2023-08-06T08:45:28;3.60;;;1.85;;
71108;SDS011;59614;51.012;-1.648;2023-08-06T08:47:54;4.55;;;1.60;;
71108;SDS011;59614;51.012;-1.648;2023-08-06T08:50:20;4.55;;;1.92;;
71108;SDS011;59614;51.012;-1.648;2023-08-06T08:52:46;3.60;;;1.60;;
71108;SDS011;59614;51.012;-1.648;2023-08-06T08:55:15;2.85;;;1.63;;
71108;SDS011;59614;51.012;-1.648;2023-08-06T08:57:41;4.40;;;1.60;;
71108;SDS011;59614;51.012;-1.648;2023-08-06T09:00:07;4.05;;;1.58;;
71108;SDS011;59614;51.012;-1.648;2023-08-06T09:02:33;4.68;;;1.40;;
71108;SDS011;59614;51.012;-1.648;2023-08-06T09:05:02;2.80;;;1.40;;
71108;SDS011;59614;51.012;-1.648;2023-08-06T09:07:35;2.53;;;1.60;;
71108;SDS011;59614;51.012;-1.648;2023-08-06T09:10:03;4.20;;;1.45;;
71108;SDS011;59614;51.012;-1.648;2023-08-06T09:12:30;4.82;;;1.58;;
71108;SDS011;59614;51.012;-1.648;2023-08-06T09:14:55;1.85;;;1.27;;
71108;SDS011;59614;51.012;-1.648;2023-08-06T09:17:21;1.27;;;0.93;;
71108;SDS011;59614;51.012;-1.648;2023-08-06T09:19:46;3.20;;;1.30;;
71108;SDS011;59614;51.012;-1.648;2023-08-06T09:22:13;3.00;;;1.60;;
71108;SDS011;59614;51.012;-1.648;2023-08-06T09:24:42;4.00;;;1.50;;
71108;SDS011;59614;51.012;-1.648;2023-08-06T09:27:11;2.15;;;1.38;;
71108;SDS011;59614;51.012;-1.648;2023-08-06T09:29:42;2.25;;;1.27;;
71108;SDS011;59614;51.012;-1.648;2023-08-06T09:32:10;2.50;;;1.10;;
71108;SDS011;59614;51.012;-1.648;2023-08-06T09:34:38;4.78;;;1.50;;
71108;SDS011;59614;51.012;-1.648;2023-08-06T09:37:04;2.47;;;1.30;;
71108;SDS011;59614;51.012;-1.648;2023-08-06T09:39:30;3.67;;;1.08;;
71108;SDS011;59614;51.012;-1.648;2023-08-06T09:41:56;4.05;;;1.25;;
71108;SDS011;59614;51.012;-1.648;2023-08-06T09:44:24;3.15;;;1.35;;
71108;SDS011;59614;51.012;-1.648;2023-08-06T09:46:52;2.47;;;1.30;;
71108;SDS011;59614;51.012;-1.648;2023-08-06T09:49:18;2.92;;;1.40;;
71108;SDS011;59614;51.012;-1.648;2023-08-06T09:51:48;2.83;;;1.38;;
71108;SDS011;59614;51.012;-1.648;2023-08-06T09:54:17;4.10;;;1.30;;
71108;SDS011;59614;51.012;-1.648;2023-08-06T09:56:44;1.92;;;1.23;;
71108;SDS011;59614;51.012;-1.648;2023-08-06T09:59:09;3.17;;;1.30;;
71108;SDS011;59614;51.012;-1.648;2023-08-06T10:01:36;2.85;;;1.30;;
71108;SDS011;59614;51.012;-1.648;2023-08-06T10:04:03;3.30;;;1.48;;
71108;SDS011;59614;51.012;-1.648;2023-08-06T10:06:29;2.88;;;1.50;;
71108;SDS011;59614;51.012;-1.648;2023-08-06T10:11:23;1.75;;;1.20;;
71108;SDS011;59614;51.012;-1.648;2023-08-06T10:13:53;2.90;;;1.30;;
71108;SDS011;59614;51.012;-1.648;2023-08-06T10:16:23;2.65;;;1.25;;
71108;SDS011;59614;51.012;-1.648;2023-08-06T10:18:50;1.43;;;1.03;;
71108;SDS011;59614;51.012;-1.648;2023-08-06T10:21:16;2.08;;;1.33;;
71108;SDS011;59614;51.012;-1.648;2023-08-06T10:23:42;3.58;;;1.10;;
71108;SDS011;59614;51.012;-1.648;2023-08-06T10:26:07;1.83;;;1.20;;
71108;SDS011;59614;51.012;-1.648;2023-08-06T10:28:34;3.17;;;1.27;;
71108;SDS011;59614;51.012;-1.648;2023-08-06T10:31:03;3.03;;;1.23;;
71108;SDS011;59614;51.012;-1.648;2023-08-06T10:33:46;1.27;;;1.17;;
71108;SDS011;59614;51.012;-1.648;2023-08-06T10:36:13;1.38;;;1.13;;
71108;SDS011;59614;51.012;-1.648;2023-08-06T10:38:48;4.45;;;1.50;;
71108;SDS011;59614;51.012;-1.648;2023-08-06T10:41:16;2.90;;;1.23;;
71108;SDS011;59614;51.012;-1.648;2023-08-06T10:44:08;2.78;;;1.00;;
71108;SDS011;59614;51.012;-1.648;2023-08-06T10:46:35;3.08;;;1.50;;
71108;SDS011;59614;51.012;-1.648;2023-08-06T10:49:01;1.65;;;1.10;;
71108;SDS011;59614;51.012;-1.648;2023-08-06T10:51:27;2.58;;;1.08;;
71108;SDS011;59614;51.012;-1.648;2023-08-06T10:53:53;1.20;;;1.08;;
71108;SDS011;59614;51.012;-1.648;2023-08-06T10:56:19;1.50;;;1.00;;
71108;SDS011;59614;51.012;-1.648;2023-08-06T10:58:56;1.42;;;1.00;;
71108;SDS011;59614;51.012;-1.648;2023-08-06T11:01:22;1.50;;;1.20;;
71108;SDS011;59614;51.012;-1.648;2023-08-06T11:03:49;1.45;;;0.90;;
71108;SDS011;59614;51.012;-1.648;2023-08-06T11:06:19;1.80;;;1.00;;
71108;SDS011;59614;51.012;-1.648;2023-08-06T11:08:53;1.92;;;1.20;;
71108;SDS011;59614;51.012;-1.648;2023-08-06T11:11:19;2.20;;;1.30;;
71108;SDS011;59614;51.012;-1.648;2023-08-06T11:13:46;1.73;;;1.23;;
71108;SDS011;59614;51.012;-1.648;2023-08-06T11:16:16;1.63;;;1.10;;
71108;SDS011;59614;51.012;-1.648;2023-08-06T11:18:43;1.00;;;1.00;;
71108;SDS011;59614;51.012;-1.648;2023-08-06T11:21:09;2.22;;;1.40;;
71108;SDS011;59614;51.012;-1.648;2023-08-06T11:23:36;1.35;;;0.88;;
71108;SDS011;59614;51.012;-1.648;2023-08-06T11:26:02;4.30;;;1.40;;
71108;SDS011;59614;51.012;-1.648;2023-08-06T11:28:28;7.38;;;1.60;;
71108;SDS011;59614;51.012;-1.648;2023-08-06T11:30:54;1.63;;;1.13;;
71108;SDS011;59614;51.012;-1.648;2023-08-06T11:33:25;4.28;;;1.30;;
71108;SDS011;59614;51.012;-1.648;2023-08-06T11:35:51;3.20;;;1.10;;
71108;SDS011;59614;51.012;-1.648;2023-08-06T11:38:17;3.60;;;1.40;;
71108;SDS011;59614;51.012;-1.648;2023-08-06T11:40:50;1.30;;;0.95;;
71108;SDS011;59614;51.012;-1.648;2023-08-06T11:43:15;2.70;;;1.15;;
71108;SDS011;59614;51.012;-1.648;2023-08-06T11:45:42;2.75;;;1.08;;
71108;SDS011;59614;51.012;-1.648;2023-08-06T11:48:08;1.77;;;0.98;;
71108;SDS011;59614;51.012;-1.648;2023-08-06T11:50:36;3.42;;;1.50;;
71108;SDS011;59614;51.012;-1.648;2023-08-06T11:53:03;1.25;;;0.88;;
71108;SDS011;59614;51.012;-1.648;2023-08-06T11:55:30;0.60;;;0.60;;
71108;SDS011;59614;51.012;-1.648;2023-08-06T11:57:56;1.55;;;0.90;;
71108;SDS011;59614;51.012;-1.648;2023-08-06T12:00:25;8.35;;;1.27;;
71108;SDS011;59614;51.012;-1.648;2023-08-06T12:02:51;1.13;;;0.82;;
71108;SDS011;59614;51.012;-1.648;2023-08-06T12:05:37;1.40;;;1.07;;
71108;SDS011;59614;51.012;-1.648;2023-08-06T12:08:03;5.25;;;1.60;;
71108;SDS011;59614;51.012;-1.648;2023-08-06T12:10:29;2.20;;;1.10;;
71108;SDS011;59614;51.012;-1.648;2023-08-06T12:12:56;4.35;;;1.10;;
71108;SDS011;59614;51.012;-1.648;2023-08-06T12:15:22;2.10;;;1.02;;
71108;SDS011;59614;51.012;-1.648;2023-08-06T12:17:48;2.00;;;1.07;;
71108;SDS011;59614;51.012;-1.648;2023-08-06T12:20:14;1.23;;;1.05;;
71108;SDS011;59614;51.012;-1.648;2023-08-06T12:22:40;2.05;;;1.00;;
71108;SDS011;59614;51.012;-1.648;2023-08-06T12:25:06;1.08;;;0.80;;
71108;SDS011;59614;51.012;-1.648;2023-08-06T12:27:36;2.03;;;1.10;;
71108;SDS011;59614;51.012;-1.648;2023-08-06T12:30:03;1.08;;;0.98;;
71108;SDS011;59614;51.012;-1.648;2023-08-06T12:32:30;4.07;;;1.08;;
71108;SDS011;59614;51.012;-1.648;2023-08-06T12:34:55;1.35;;;1.00;;
71108;SDS011;59614;51.012;-1.648;2023-08-06T12:37:21;1.13;;;0.90;;
71108;SDS011;59614;51.012;-1.648;2023-08-06T12:39:46;2.05;;;1.13;;
71108;SDS011;59614;51.012;-1.648;2023-08-06T12:42:12;3.50;;;1.20;;
71108;SDS011;59614;51.012;-1.648;2023-08-06T12:44:37;1.23;;;0.90;;
71108;SDS011;59614;51.012;-1.648;2023-08-06T12:47:03;1.75;;;0.85;;
71108;SDS011;59614;51.012;-1.648;2023-08-06T12:49:28;2.00;;;1.08;;
71108;SDS011;59614;51.012;-1.648;2023-08-06T12:51:54;0.77;;;0.70;;
71108;SDS011;59614;51.012;-1.648;2023-08-06T12:54:21;1.15;;;0.93;;
71108;SDS011;59614;51.012;-1.648;2023-08-06T12:56:48;0.93;;;0.82;;
71108;SDS011;59614;51.012;-1.648;2023-08-06T12:59:14;0.95;;;0.88;;
71108;SDS011;59614;51.012;-1.648;2023-08-06T13:01:41;3.22;;;1.23;;
71108;SDS011;59614;51.012;-1.648;2023-08-06T13:04:07;0.77;;;0.73;;
71108;SDS011;59614;51.012;-1.648;2023-08-06T13:06:33;1.02;;;0.90;;
71108;SDS011;59614;51.012;-1.648;2023-08-06T13:09:05;2.17;;;1.10;;
71108;SDS011;59614;51.012;-1.648;2023-08-06T13:11:32;1.05;;;0.85;;
71108;SDS011;59614;51.012;-1.648;2023-08-06T13:14:03;0.77;;;0.77;;
71108;SDS011;59614;51.012;-1.648;2023-08-06T13:16:29;1.70;;;0.98;;
71108;SDS011;59614;51.012;-1.648;2023-08-06T13:18:55;1.50;;;0.80;;
71108;SDS011;59614;51.012;-1.648;2023-08-06T13:21:20;2.15;;;1.10;;
71108;SDS011;59614;51.012;-1.648;2023-08-06T13:23:46;2.20;;;1.40;;
71108;SDS011;59614;51.012;-1.648;2023-08-06T13:26:12;3.57;;;1.40;;
71108;SDS011;59614;51.012;-1.648;2023-08-06T13:28:38;3.47;;;1.42;;
71108;SDS011;59614;51.012;-1.648;2023-08-06T13:31:03;2.45;;;1.10;;
71108;SDS011;59614;51.012;-1.648;2023-08-06T13:33:29;2.40;;;1.27;;
71108;SDS011;59614;51.012;-1.648;2023-08-06T13:35:54;1.65;;;1.20;;
71108;SDS011;59614;51.012;-1.648;2023-08-06T13:38:20;6.18;;;1.40;;
71108;SDS011;59614;51.012;-1.648;2023-08-06T13:40:45;3.72;;;1.52;;
71108;SDS011;59614;51.012;-1.648;2023-08-06T13:43:11;3.90;;;1.35;;
71108;SDS011;59614;51.012;-1.648;2023-08-06T13:45:37;4.80;;;1.50;;
71108;SDS011;59614;51.012;-1.648;2023-08-06T13:48:03;3.95;;;1.75;;
71108;SDS011;59614;51.012;-1.648;2023-08-06T13:50:29;4.75;;;1.50;;
71108;SDS011;59614;51.012;-1.648;2023-08-06T13:52:54;1.83;;;1.20;;
71108;SDS011;59614;51.012;-1.648;2023-08-06T13:55:21;2.08;;;1.17;;
71108;SDS011;59614;51.012;-1.648;2023-08-06T13:57:46;1.30;;;1.10;;
71108;SDS011;59614;51.012;-1.648;2023-08-06T14:00:12;4.13;;;1.00;;
71108;SDS011;59614;51.012;-1.648;2023-08-06T14:02:38;5.95;;;1.20;;
71108;SDS011;59614;51.012;-1.648;2023-08-06T14:05:03;5.75;;;1.58;;
71108;SDS011;59614;51.012;-1.648;2023-08-06T14:07:30;3.08;;;1.40;;
71108;SDS011;59614;51.012;-1.648;2023-08-06T14:09:55;1.33;;;1.20;;
71108;SDS011;59614;51.012;-1.648;2023-08-06T14:12:22;2.75;;;1.10;;
71108;SDS011;59614;51.012;-1.648;2023-08-06T14:14:48;3.13;;;1.35;;
71108;SDS011;59614;51.012;-1.648;2023-08-06T14:17:13;3.50;;;1.15;;
71108;SDS011;59614;51.012;-1.648;2023-08-06T14:19:38;1.10;;;1.00;;
71108;SDS011;59614;51.012;-1.648;2023-08-06T14:22:04;2.47;;;1.40;;
71108;SDS011;59614;51.012;-1.648;2023-08-06T14:24:30;3.47;;;1.67;;
71108;SDS011;59614;51.012;-1.648;2023-08-06T14:26:55;2.80;;;1.33;;
71108;SDS011;59614;51.012;-1.648;2023-08-06T14:29:21;3.85;;;1.50;;
71108;SDS011;59614;51.012;-1.648;2023-08-06T14:31:46;2.47;;;1.40;;
71108;SDS011;59614;51.012;-1.648;2023-08-06T14:34:12;2.10;;;1.40;;
71108;SDS011;59614;51.012;-1.648;2023-08-06T14:36:37;3.00;;;1.65;;